sensor_id;sensor_type;location;lat;lon;timestamp;temperature;humidity
76120;DHT22;64852;48.092;-1.640;2024-02-28T00:01:02;8.30;99.90
76120;DHT22;64852;48.092;-1.640;2024-02-28T00:03:27;8.30;99.90
76120;DHT22;64852;48.092;-1.640;2024-02-28T00:05:53;8.40;99.90
76120;DHT22;64852;48.092;-1.640;2024-02-28T00:08:18;9.30;99.90
76120;DHT22;64852;48.092;-1.640;2024-02-28T00:10:45;8.30;99.90
76120;DHT22;64852;48.092;-1.640;2024-02-28T00:13:11;8.30;99.90
76120;DHT22;64852;48.092;-1.640;2024-02-28T00:15:36;8.10;99.90
76120;DHT22;64852;48.092;-1.640;2024-02-28T00:18:02;9.20;99.90
76120;DHT22;64852;48.092;-1.640;2024-02-28T00:20:28;8.10;99.90
76120;DHT22;64852;48.092;-1.640;2024-02-28T00:22:55;8.90;99.90
76120;DHT22;64852;48.092;-1.640;2024-02-28T00:25:20;9.20;99.90
76120;DHT22;64852;48.092;-1.640;2024-02-28T00:27:45;8.30;99.90
76120;DHT22;64852;48.092;-1.640;2024-02-28T00:30:11;8.20;99.90
76120;DHT22;64852;48.092;-1.640;2024-02-28T00:32:37;8.20;99.90
76120;DHT22;64852;48.092;-1.640;2024-02-28T00:35:02;8.30;99.90
76120;DHT22;64852;48.092;-1.640;2024-02-28T00:37:29;8.20;99.90
76120;DHT22;64852;48.092;-1.640;2024-02-28T00:39:54;8.20;99.90
76120;DHT22;64852;48.092;-1.640;2024-02-28T00:42:20;8.30;99.90
76120;DHT22;64852;48.092;-1.640;2024-02-28T00:44:45;9.40;99.90
76120;DHT22;64852;48.092;-1.640;2024-02-28T00:47:11;8.30;99.90
76120;DHT22;64852;48.092;-1.640;2024-02-28T00:49:37;8.30;99.90
76120;DHT22;64852;48.092;-1.640;2024-02-28T00:52:02;9.00;99.90
76120;DHT22;64852;48.092;-1.640;2024-02-28T00:54:28;8.30;99.90
76120;DHT22;64852;48.092;-1.640;2024-02-28T00:56:53;9.10;99.90
76120;DHT22;64852;48.092;-1.640;2024-02-28T00:59:19;8.80;99.90
76120;DHT22;64852;48.092;-1.640;2024-02-28T01:01:44;8.60;99.90
76120;DHT22;64852;48.092;-1.640;2024-02-28T01:04:10;9.30;99.90
76120;DHT22;64852;48.092;-1.640;2024-02-28T01:06:35;8.60;99.90
76120;DHT22;64852;48.092;-1.640;2024-02-28T01:09:01;9.20;99.90
76120;DHT22;64852;48.092;-1.640;2024-02-28T01:11:26;8.80;99.90
76120;DHT22;64852;48.092;-1.640;2024-02-28T01:13:52;9.00;99.90
76120;DHT22;64852;48.092;-1.640;2024-02-28T01:16:17;9.20;99.90
76120;DHT22;64852;48.092;-1.640;2024-02-28T01:18:43;8.30;99.90
76120;DHT22;64852;48.092;-1.640;2024-02-28T01:21:08;8.30;99.90
76120;DHT22;64852;48.092;-1.640;2024-02-28T01:23:34;8.90;99.90
76120;DHT22;64852;48.092;-1.640;2024-02-28T01:25:59;9.00;99.90
76120;DHT22;64852;48.092;-1.640;2024-02-28T01:28:27;8.30;99.90
76120;DHT22;64852;48.092;-1.640;2024-02-28T01:30:52;9.30;99.90
76120;DHT22;64852;48.092;-1.640;2024-02-28T01:33:18;9.20;99.90
76120;DHT22;64852;48.092;-1.640;2024-02-28T01:35:43;9.40;99.90
76120;DHT22;64852;48.092;-1.640;2024-02-28T01:38:09;8.50;99.90
76120;DHT22;64852;48.092;-1.640;2024-02-28T01:40:34;8.50;99.90
76120;DHT22;64852;48.092;-1.640;2024-02-28T01:43:03;9.20;99.90
76120;DHT22;64852;48.092;-1.640;2024-02-28T01:45:29;8.30;99.90
76120;DHT22;64852;48.092;-1.640;2024-02-28T01:47:55;8.30;99.90
76120;DHT22;64852;48.092;-1.640;2024-02-28T01:50:20;9.00;99.90
76120;DHT22;64852;48.092;-1.640;2024-02-28T01:52:46;8.40;99.90
76120;DHT22;64852;48.092;-1.640;2024-02-28T01:55:11;8.90;99.90
76120;DHT22;64852;48.092;-1.640;2024-02-28T01:57:37;8.50;99.90
76120;DHT22;64852;48.092;-1.640;2024-02-28T02:00:03;8.40;99.90
76120;DHT22;64852;48.092;-1.640;2024-02-28T02:02:29;8.30;99.90
76120;DHT22;64852;48.092;-1.640;2024-02-28T02:04:54;8.80;99.90
76120;DHT22;64852;48.092;-1.640;2024-02-28T02:07:23;8.30;99.90
76120;DHT22;64852;48.092;-1.640;2024-02-28T02:09:49;8.30;99.90
76120;DHT22;64852;48.092;-1.640;2024-02-28T02:12:15;8.30;99.90
76120;DHT22;64852;48.092;-1.640;2024-02-28T02:14:41;8.60;99.90
76120;DHT22;64852;48.092;-1.640;2024-02-28T02:17:07;8.80;99.90
76120;DHT22;64852;48.092;-1.640;2024-02-28T02:19:32;8.20;99.90
76120;DHT22;64852;48.092;-1.640;2024-02-28T02:21:58;8.40;99.90
76120;DHT22;64852;48.092;-1.640;2024-02-28T02:24:24;9.00;99.90
76120;DHT22;64852;48.092;-1.640;2024-02-28T02:26:49;9.40;99.90
76120;DHT22;64852;48.092;-1.640;2024-02-28T02:29:17;8.30;99.90
76120;DHT22;64852;48.092;-1.640;2024-02-28T02:31:43;8.50;99.90
76120;DHT22;64852;48.092;-1.640;2024-02-28T02:34:08;9.00;99.90
76120;DHT22;64852;48.092;-1.640;2024-02-28T02:36:34;9.30;99.90
76120;DHT22;64852;48.092;-1.640;2024-02-28T02:38:59;9.00;99.90
76120;DHT22;64852;48.092;-1.640;2024-02-28T02:41:25;8.50;99.90
76120;DHT22;64852;48.092;-1.640;2024-02-28T02:43:51;9.00;99.90
76120;DHT22;64852;48.092;-1.640;2024-02-28T02:46:16;9.10;99.90
76120;DHT22;64852;48.092;-1.640;2024-02-28T02:48:42;8.40;99.90
76120;DHT22;64852;48.092;-1.640;2024-02-28T02:51:07;8.50;99.90
76120;DHT22;64852;48.092;-1.640;2024-02-28T02:53:33;8.50;99.90
76120;DHT22;64852;48.092;-1.640;2024-02-28T02:55:58;8.90;99.90
76120;DHT22;64852;48.092;-1.640;2024-02-28T02:58:24;8.90;99.90
76120;DHT22;64852;48.092;-1.640;2024-02-28T03:00:49;8.50;99.90
76120;DHT22;64852;48.092;-1.640;2024-02-28T03:03:15;8.50;99.90
76120;DHT22;64852;48.092;-1.640;2024-02-28T03:05:40;8.50;99.90
76120;DHT22;64852;48.092;-1.640;2024-02-28T03:08:06;8.60;99.90
76120;DHT22;64852;48.092;-1.640;2024-02-28T03:10:31;8.50;99.90
76120;DHT22;64852;48.092;-1.640;2024-02-28T03:12:57;8.50;99.90
76120;DHT22;64852;48.092;-1.640;2024-02-28T03:15:22;9.50;99.90
76120;DHT22;64852;48.092;-1.640;2024-02-28T03:17:48;9.50;99.90
76120;DHT22;64852;48.092;-1.640;2024-02-28T03:20:13;8.50;99.90
76120;DHT22;64852;48.092;-1.640;2024-02-28T03:22:39;8.50;99.90
76120;DHT22;64852;48.092;-1.640;2024-02-28T03:25:05;8.50;99.90
76120;DHT22;64852;48.092;-1.640;2024-02-28T03:27:31;8.50;99.90
76120;DHT22;64852;48.092;-1.640;2024-02-28T03:29:56;8.70;99.90
76120;DHT22;64852;48.092;-1.640;2024-02-28T03:32:22;9.30;99.90
76120;DHT22;64852;48.092;-1.640;2024-02-28T03:34:47;8.50;99.90
76120;DHT22;64852;48.092;-1.640;2024-02-28T03:37:14;8.60;99.90
76120;DHT22;64852;48.092;-1.640;2024-02-28T03:39:39;8.70;99.90
76120;DHT22;64852;48.092;-1.640;2024-02-28T03:42:05;8.60;99.90
76120;DHT22;64852;48.092;-1.640;2024-02-28T03:44:30;8.60;99.90
76120;DHT22;64852;48.092;-1.640;2024-02-28T03:46:56;9.40;99.90
76120;DHT22;64852;48.092;-1.640;2024-02-28T03:49:21;9.30;99.90
76120;DHT22;64852;48.092;-1.640;2024-02-28T03:51:47;8.60;99.90
76120;DHT22;64852;48.092;-1.640;2024-02-28T03:54:12;8.50;99.90
76120;DHT22;64852;48.092;-1.640;2024-02-28T03:56:38;9.20;99.90
76120;DHT22;64852;48.092;-1.640;2024-02-28T03:59:03;9.40;99.90
76120;DHT22;64852;48.092;-1.640;2024-02-28T04:01:29;8.60;99.90
76120;DHT22;64852;48.092;-1.640;2024-02-28T04:03:55;8.60;99.90
76120;DHT22;64852;48.092;-1.640;2024-02-28T04:06:20;9.70;99.90
76120;DHT22;64852;48.092;-1.640;2024-02-28T04:08:45;8.70;99.90
76120;DHT22;64852;48.092;-1.640;2024-02-28T04:11:11;8.80;99.90
76120;DHT22;64852;48.092;-1.640;2024-02-28T04:13:36;8.90;99.90
76120;DHT22;64852;48.092;-1.640;2024-02-28T04:16:02;10.10;99.90
76120;DHT22;64852;48.092;-1.640;2024-02-28T04:18:31;8.70;99.90
76120;DHT22;64852;48.092;-1.640;2024-02-28T04:20:56;8.70;99.90
76120;DHT22;64852;48.092;-1.640;2024-02-28T04:23:22;9.80;99.90
76120;DHT22;64852;48.092;-1.640;2024-02-28T04:25:47;9.20;99.90
76120;DHT22;64852;48.092;-1.640;2024-02-28T04:28:13;9.80;99.90
76120;DHT22;64852;48.092;-1.640;2024-02-28T04:30:39;9.90;99.90
76120;DHT22;64852;48.092;-1.640;2024-02-28T04:33:04;9.90;99.90
76120;DHT22;64852;48.092;-1.640;2024-02-28T04:35:30;9.70;99.90
76120;DHT22;64852;48.092;-1.640;2024-02-28T04:37:55;9.90;99.90
76120;DHT22;64852;48.092;-1.640;2024-02-28T04:40:20;9.00;99.90
76120;DHT22;64852;48.092;-1.640;2024-02-28T04:42:46;9.00;99.90
76120;DHT22;64852;48.092;-1.640;2024-02-28T04:45:11;9.00;99.90
76120;DHT22;64852;48.092;-1.640;2024-02-28T04:47:37;9.00;99.90
76120;DHT22;64852;48.092;-1.640;2024-02-28T04:50:03;9.20;99.90
76120;DHT22;64852;48.092;-1.640;2024-02-28T04:52:32;8.90;99.90
76120;DHT22;64852;48.092;-1.640;2024-02-28T04:54:57;8.80;99.90
76120;DHT22;64852;48.092;-1.640;2024-02-28T04:57:23;9.80;99.90
76120;DHT22;64852;48.092;-1.640;2024-02-28T04:59:48;9.00;99.90
76120;DHT22;64852;48.092;-1.640;2024-02-28T05:02:14;9.10;99.90
76120;DHT22;64852;48.092;-1.640;2024-02-28T05:04:40;9.00;99.90
76120;DHT22;64852;48.092;-1.640;2024-02-28T05:07:05;9.50;99.90
76120;DHT22;64852;48.092;-1.640;2024-02-28T05:09:33;9.80;99.90
76120;DHT22;64852;48.092;-1.640;2024-02-28T05:11:58;9.00;99.90
76120;DHT22;64852;48.092;-1.640;2024-02-28T05:14:24;9.70;99.90
76120;DHT22;64852;48.092;-1.640;2024-02-28T05:16:49;9.60;99.90
76120;DHT22;64852;48.092;-1.640;2024-02-28T05:19:15;10.00;99.90
76120;DHT22;64852;48.092;-1.640;2024-02-28T05:21:43;10.00;99.90
76120;DHT22;64852;48.092;-1.640;2024-02-28T05:24:08;9.20;99.90
76120;DHT22;64852;48.092;-1.640;2024-02-28T05:26:34;9.30;99.90
76120;DHT22;64852;48.092;-1.640;2024-02-28T05:29:00;9.30;99.90
76120;DHT22;64852;48.092;-1.640;2024-02-28T05:31:26;10.20;99.90
76120;DHT22;64852;48.092;-1.640;2024-02-28T05:33:53;9.30;99.90
76120;DHT22;64852;48.092;-1.640;2024-02-28T05:36:19;9.80;99.90
76120;DHT22;64852;48.092;-1.640;2024-02-28T05:38:45;9.70;99.90
76120;DHT22;64852;48.092;-1.640;2024-02-28T05:41:10;10.40;99.90
76120;DHT22;64852;48.092;-1.640;2024-02-28T05:43:36;9.60;99.90
76120;DHT22;64852;48.092;-1.640;2024-02-28T05:46:02;9.40;99.90
76120;DHT22;64852;48.092;-1.640;2024-02-28T05:48:28;9.30;99.90
76120;DHT22;64852;48.092;-1.640;2024-02-28T05:50:53;9.40;99.90
76120;DHT22;64852;48.092;-1.640;2024-02-28T05:53:18;10.40;99.90
76120;DHT22;64852;48.092;-1.640;2024-02-28T05:55:44;9.40;99.90
76120;DHT22;64852;48.092;-1.640;2024-02-28T05:58:10;9.30;99.90
76120;DHT22;64852;48.092;-1.640;2024-02-28T06:00:35;9.40;99.90
76120;DHT22;64852;48.092;-1.640;2024-02-28T06:03:01;9.30;99.90
76120;DHT22;64852;48.092;-1.640;2024-02-28T06:05:26;9.80;99.90
76120;DHT22;64852;48.092;-1.640;2024-02-28T06:07:52;10.10;99.90
76120;DHT22;64852;48.092;-1.640;2024-02-28T06:10:17;9.40;99.90
76120;DHT22;64852;48.092;-1.640;2024-02-28T06:12:43;9.40;99.90
76120;DHT22;64852;48.092;-1.640;2024-02-28T06:15:08;10.20;99.90
76120;DHT22;64852;48.092;-1.640;2024-02-28T06:17:34;9.40;99.90
76120;DHT22;64852;48.092;-1.640;2024-02-28T06:19:59;10.00;99.90
76120;DHT22;64852;48.092;-1.640;2024-02-28T06:22:25;10.40;99.90
76120;DHT22;64852;48.092;-1.640;2024-02-28T06:24:50;9.40;99.90
76120;DHT22;64852;48.092;-1.640;2024-02-28T06:27:16;9.50;99.90
76120;DHT22;64852;48.092;-1.640;2024-02-28T06:29:41;9.70;99.90
76120;DHT22;64852;48.092;-1.640;2024-02-28T06:32:07;9.40;99.90
76120;DHT22;64852;48.092;-1.640;2024-02-28T06:34:33;9.50;99.90
76120;DHT22;64852;48.092;-1.640;2024-02-28T06:36:58;10.10;99.90
76120;DHT22;64852;48.092;-1.640;2024-02-28T06:39:24;9.70;99.90
76120;DHT22;64852;48.092;-1.640;2024-02-28T06:41:49;9.90;99.90
76120;DHT22;64852;48.092;-1.640;2024-02-28T06:44:19;10.40;99.90
76120;DHT22;64852;48.092;-1.640;2024-02-28T06:46:45;9.40;99.90
76120;DHT22;64852;48.092;-1.640;2024-02-28T06:49:10;9.50;99.90
76120;DHT22;64852;48.092;-1.640;2024-02-28T06:51:36;9.50;99.90
76120;DHT22;64852;48.092;-1.640;2024-02-28T06:54:02;9.50;99.90
76120;DHT22;64852;48.092;-1.640;2024-02-28T06:56:27;9.50;99.90
76120;DHT22;64852;48.092;-1.640;2024-02-28T06:58:53;9.60;99.90
76120;DHT22;64852;48.092;-1.640;2024-02-28T07:01:18;9.60;99.90
76120;DHT22;64852;48.092;-1.640;2024-02-28T07:03:44;9.50;99.90
76120;DHT22;64852;48.092;-1.640;2024-02-28T07:06:10;10.10;99.90
76120;DHT22;64852;48.092;-1.640;2024-02-28T07:08:36;10.30;99.90
76120;DHT22;64852;48.092;-1.640;2024-02-28T07:11:02;9.60;99.90
76120;DHT22;64852;48.092;-1.640;2024-02-28T07:13:28;9.50;99.90
76120;DHT22;64852;48.092;-1.640;2024-02-28T07:15:54;10.00;99.90
76120;DHT22;64852;48.092;-1.640;2024-02-28T07:18:19;9.50;99.90
76120;DHT22;64852;48.092;-1.640;2024-02-28T07:20:45;10.70;99.90
76120;DHT22;64852;48.092;-1.640;2024-02-28T07:23:11;9.60;99.90
76120;DHT22;64852;48.092;-1.640;2024-02-28T07:25:36;10.60;99.90
76120;DHT22;64852;48.092;-1.640;2024-02-28T07:28:02;9.80;99.90
76120;DHT22;64852;48.092;-1.640;2024-02-28T07:30:28;9.70;99.90
76120;DHT22;64852;48.092;-1.640;2024-02-28T07:32:53;9.60;99.90
76120;DHT22;64852;48.092;-1.640;2024-02-28T07:35:19;10.20;99.90
76120;DHT22;64852;48.092;-1.640;2024-02-28T07:37:46;9.60;99.90
76120;DHT22;64852;48.092;-1.640;2024-02-28T07:40:12;10.10;99.90
76120;DHT22;64852;48.092;-1.640;2024-02-28T07:42:37;9.00;99.90
76120;DHT22;64852;48.092;-1.640;2024-02-28T07:45:03;9.70;99.90
76120;DHT22;64852;48.092;-1.640;2024-02-28T07:47:28;9.80;99.90
76120;DHT22;64852;48.092;-1.640;2024-02-28T07:49:54;9.90;99.90
76120;DHT22;64852;48.092;-1.640;2024-02-28T07:52:20;10.80;99.90
76120;DHT22;64852;48.092;-1.640;2024-02-28T07:54:45;9.90;99.90
76120;DHT22;64852;48.092;-1.640;2024-02-28T07:57:11;11.00;99.90
76120;DHT22;64852;48.092;-1.640;2024-02-28T07:59:43;9.80;99.90
76120;DHT22;64852;48.092;-1.640;2024-02-28T08:02:08;9.80;99.90
76120;DHT22;64852;48.092;-1.640;2024-02-28T08:04:35;10.80;99.90
76120;DHT22;64852;48.092;-1.640;2024-02-28T08:07:00;10.40;99.90
76120;DHT22;64852;48.092;-1.640;2024-02-28T08:09:26;10.00;99.90
76120;DHT22;64852;48.092;-1.640;2024-02-28T08:11:51;10.50;99.90
76120;DHT22;64852;48.092;-1.640;2024-02-28T08:14:17;10.30;99.90
76120;DHT22;64852;48.092;-1.640;2024-02-28T08:16:43;10.10;99.90
76120;DHT22;64852;48.092;-1.640;2024-02-28T08:19:08;10.30;99.90
76120;DHT22;64852;48.092;-1.640;2024-02-28T08:21:34;10.40;99.90
76120;DHT22;64852;48.092;-1.640;2024-02-28T08:23:59;10.40;99.90
76120;DHT22;64852;48.092;-1.640;2024-02-28T08:26:25;10.10;99.90
76120;DHT22;64852;48.092;-1.640;2024-02-28T08:28:50;10.20;99.90
76120;DHT22;64852;48.092;-1.640;2024-02-28T08:31:16;10.70;99.90
76120;DHT22;64852;48.092;-1.640;2024-02-28T08:33:41;10.30;99.90
76120;DHT22;64852;48.092;-1.640;2024-02-28T08:36:07;10.50;99.90
76120;DHT22;64852;48.092;-1.640;2024-02-28T08:38:32;10.50;99.90
76120;DHT22;64852;48.092;-1.640;2024-02-28T08:41:00;10.50;99.90
76120;DHT22;64852;48.092;-1.640;2024-02-28T08:43:25;10.60;99.90
76120;DHT22;64852;48.092;-1.640;2024-02-28T08:45:50;11.70;99.90
76120;DHT22;64852;48.092;-1.640;2024-02-28T08:48:16;10.80;99.90
76120;DHT22;64852;48.092;-1.640;2024-02-28T08:50:42;10.90;99.90
76120;DHT22;64852;48.092;-1.640;2024-02-28T08:53:08;11.00;99.90
76120;DHT22;64852;48.092;-1.640;2024-02-28T08:55:33;11.00;99.90
76120;DHT22;64852;48.092;-1.640;2024-02-28T08:57:59;11.20;99.90
76120;DHT22;64852;48.092;-1.640;2024-02-28T09:00:24;11.00;99.90
76120;DHT22;64852;48.092;-1.640;2024-02-28T09:02:50;11.10;99.90
76120;DHT22;64852;48.092;-1.640;2024-02-28T09:05:16;11.10;99.90
76120;DHT22;64852;48.092;-1.640;2024-02-28T09:07:41;12.20;99.90
76120;DHT22;64852;48.092;-1.640;2024-02-28T09:10:07;11.00;99.90
76120;DHT22;64852;48.092;-1.640;2024-02-28T09:12:33;11.10;99.90
76120;DHT22;64852;48.092;-1.640;2024-02-28T09:14:58;11.20;99.90
76120;DHT22;64852;48.092;-1.640;2024-02-28T09:17:25;12.00;99.90
76120;DHT22;64852;48.092;-1.640;2024-02-28T09:19:50;11.20;99.90
76120;DHT22;64852;48.092;-1.640;2024-02-28T09:22:17;11.50;99.90
76120;DHT22;64852;48.092;-1.640;2024-02-28T09:24:42;11.20;99.90
76120;DHT22;64852;48.092;-1.640;2024-02-28T09:27:08;11.20;99.90
76120;DHT22;64852;48.092;-1.640;2024-02-28T09:29:33;11.20;99.90
76120;DHT22;64852;48.092;-1.640;2024-02-28T09:31:59;11.30;99.90
76120;DHT22;64852;48.092;-1.640;2024-02-28T09:34:24;11.50;99.90
76120;DHT22;64852;48.092;-1.640;2024-02-28T09:36:50;11.30;99.90
76120;DHT22;64852;48.092;-1.640;2024-02-28T09:39:15;11.30;99.90
76120;DHT22;64852;48.092;-1.640;2024-02-28T09:41:41;11.20;99.90
76120;DHT22;64852;48.092;-1.640;2024-02-28T09:44:07;11.40;99.90
76120;DHT22;64852;48.092;-1.640;2024-02-28T09:46:33;11.40;99.90
76120;DHT22;64852;48.092;-1.640;2024-02-28T09:49:01;11.40;99.90
76120;DHT22;64852;48.092;-1.640;2024-02-28T09:51:28;11.50;99.90
76120;DHT22;64852;48.092;-1.640;2024-02-28T09:53:54;11.50;99.90
76120;DHT22;64852;48.092;-1.640;2024-02-28T09:56:19;11.50;99.90
76120;DHT22;64852;48.092;-1.640;2024-02-28T09:58:46;11.60;99.90
76120;DHT22;64852;48.092;-1.640;2024-02-28T10:01:11;11.70;99.90
76120;DHT22;64852;48.092;-1.640;2024-02-28T10:03:40;11.70;99.90
76120;DHT22;64852;48.092;-1.640;2024-02-28T10:06:07;11.70;99.90
76120;DHT22;64852;48.092;-1.640;2024-02-28T10:08:33;11.80;99.90
76120;DHT22;64852;48.092;-1.640;2024-02-28T10:11:00;11.80;99.90
76120;DHT22;64852;48.092;-1.640;2024-02-28T10:13:26;11.80;99.90
76120;DHT22;64852;48.092;-1.640;2024-02-28T10:15:51;11.90;99.90
76120;DHT22;64852;48.092;-1.640;2024-02-28T10:18:16;11.90;99.90
76120;DHT22;64852;48.092;-1.640;2024-02-28T10:20:42;12.00;99.90
76120;DHT22;64852;48.092;-1.640;2024-02-28T10:23:08;12.10;99.90
76120;DHT22;64852;48.092;-1.640;2024-02-28T10:25:41;12.00;99.90
76120;DHT22;64852;48.092;-1.640;2024-02-28T10:28:07;12.00;99.90
76120;DHT22;64852;48.092;-1.640;2024-02-28T10:30:32;12.00;99.90
76120;DHT22;64852;48.092;-1.640;2024-02-28T10:32:58;12.10;99.90
76120;DHT22;64852;48.092;-1.640;2024-02-28T10:35:23;12.00;99.90
76120;DHT22;64852;48.092;-1.640;2024-02-28T10:37:53;12.00;99.90
76120;DHT22;64852;48.092;-1.640;2024-02-28T10:40:21;11.80;99.90
76120;DHT22;64852;48.092;-1.640;2024-02-28T10:42:47;11.80;99.90
76120;DHT22;64852;48.092;-1.640;2024-02-28T10:45:13;12.60;99.90
76120;DHT22;64852;48.092;-1.640;2024-02-28T10:47:38;12.10;99.90
76120;DHT22;64852;48.092;-1.640;2024-02-28T10:50:04;11.70;99.90
76120;DHT22;64852;48.092;-1.640;2024-02-28T10:52:30;11.80;99.90
76120;DHT22;64852;48.092;-1.640;2024-02-28T10:54:59;11.80;99.90
76120;DHT22;64852;48.092;-1.640;2024-02-28T10:57:25;11.90;99.90
76120;DHT22;64852;48.092;-1.640;2024-02-28T10:59:51;11.80;99.90
76120;DHT22;64852;48.092;-1.640;2024-02-28T11:02:17;11.80;99.90
76120;DHT22;64852;48.092;-1.640;2024-02-28T11:04:43;11.90;99.90
76120;DHT22;64852;48.092;-1.640;2024-02-28T11:07:08;11.90;99.90
76120;DHT22;64852;48.092;-1.640;2024-02-28T11:09:34;12.00;99.90
76120;DHT22;64852;48.092;-1.640;2024-02-28T11:11:59;12.00;99.90
76120;DHT22;64852;48.092;-1.640;2024-02-28T11:14:25;12.00;99.90
76120;DHT22;64852;48.092;-1.640;2024-02-28T11:17:01;12.00;99.90
76120;DHT22;64852;48.092;-1.640;2024-02-28T11:19:28;12.00;99.90
76120;DHT22;64852;48.092;-1.640;2024-02-28T11:21:55;12.10;99.90
76120;DHT22;64852;48.092;-1.640;2024-02-28T11:24:23;12.10;99.90
76120;DHT22;64852;48.092;-1.640;2024-02-28T11:26:52;12.30;99.90
76120;DHT22;64852;48.092;-1.640;2024-02-28T11:29:22;12.30;99.90
76120;DHT22;64852;48.092;-1.640;2024-02-28T11:31:48;12.30;99.90
76120;DHT22;64852;48.092;-1.640;2024-02-28T11:34:13;12.40;99.90
76120;DHT22;64852;48.092;-1.640;2024-02-28T11:36:39;12.30;99.90
76120;DHT22;64852;48.092;-1.640;2024-02-28T11:39:06;12.30;99.90
76120;DHT22;64852;48.092;-1.640;2024-02-28T11:41:32;12.30;99.90
76120;DHT22;64852;48.092;-1.640;2024-02-28T11:43:57;12.30;99.90
76120;DHT22;64852;48.092;-1.640;2024-02-28T11:46:23;12.50;99.90
76120;DHT22;64852;48.092;-1.640;2024-02-28T11:48:49;12.50;99.90
76120;DHT22;64852;48.092;-1.640;2024-02-28T11:51:14;12.50;99.90
76120;DHT22;64852;48.092;-1.640;2024-02-28T11:53:40;12.50;99.90
76120;DHT22;64852;48.092;-1.640;2024-02-28T11:56:06;12.50;99.90
76120;DHT22;64852;48.092;-1.640;2024-02-28T11:58:33;12.50;99.90
76120;DHT22;64852;48.092;-1.640;2024-02-28T12:00:59;12.50;99.90
76120;DHT22;64852;48.092;-1.640;2024-02-28T12:03:25;12.80;99.90
76120;DHT22;64852;48.092;-1.640;2024-02-28T12:05:51;12.70;99.90
76120;DHT22;64852;48.092;-1.640;2024-02-28T12:08:17;12.80;99.90
76120;DHT22;64852;48.092;-1.640;2024-02-28T12:10:44;12.70;99.90
76120;DHT22;64852;48.092;-1.640;2024-02-28T12:13:10;12.70;99.90
76120;DHT22;64852;48.092;-1.640;2024-02-28T12:15:36;12.80;99.90
76120;DHT22;64852;48.092;-1.640;2024-02-28T12:18:07;12.80;99.90
76120;DHT22;64852;48.092;-1.640;2024-02-28T12:20:33;12.90;99.90
76120;DHT22;64852;48.092;-1.640;2024-02-28T12:22:59;12.90;99.90
76120;DHT22;64852;48.092;-1.640;2024-02-28T12:25:24;13.00;99.90
76120;DHT22;64852;48.092;-1.640;2024-02-28T12:27:50;12.90;99.90
76120;DHT22;64852;48.092;-1.640;2024-02-28T12:30:15;13.10;99.90
76120;DHT22;64852;48.092;-1.640;2024-02-28T12:32:41;12.90;99.90
76120;DHT22;64852;48.092;-1.640;2024-02-28T12:35:06;12.90;99.90
76120;DHT22;64852;48.092;-1.640;2024-02-28T12:37:32;13.00;99.90
76120;DHT22;64852;48.092;-1.640;2024-02-28T12:39:58;12.90;99.90
76120;DHT22;64852;48.092;-1.640;2024-02-28T12:42:23;12.90;99.90
76120;DHT22;64852;48.092;-1.640;2024-02-28T12:44:49;12.90;99.90
76120;DHT22;64852;48.092;-1.640;2024-02-28T12:47:14;12.90;99.90
76120;DHT22;64852;48.092;-1.640;2024-02-28T12:49:40;12.80;99.90
76120;DHT22;64852;48.092;-1.640;2024-02-28T12:52:05;12.80;99.90
76120;DHT22;64852;48.092;-1.640;2024-02-28T12:54:31;12.90;99.90
76120;DHT22;64852;48.092;-1.640;2024-02-28T12:56:56;13.00;99.90
76120;DHT22;64852;48.092;-1.640;2024-02-28T12:59:22;13.10;99.90
76120;DHT22;64852;48.092;-1.640;2024-02-28T13:01:47;13.10;99.90
76120;DHT22;64852;48.092;-1.640;2024-02-28T13:04:13;13.10;99.90
76120;DHT22;64852;48.092;-1.640;2024-02-28T13:06:39;13.10;99.90
76120;DHT22;64852;48.092;-1.640;2024-02-28T13:09:07;13.10;99.90
76120;DHT22;64852;48.092;-1.640;2024-02-28T13:11:38;13.10;99.90
76120;DHT22;64852;48.092;-1.640;2024-02-28T13:14:03;13.00;99.90
76120;DHT22;64852;48.092;-1.640;2024-02-28T13:16:29;13.10;99.90
76120;DHT22;64852;48.092;-1.640;2024-02-28T13:18:55;13.20;99.90
76120;DHT22;64852;48.092;-1.640;2024-02-28T13:21:20;13.20;99.90
76120;DHT22;64852;48.092;-1.640;2024-02-28T13:23:46;13.20;99.90
76120;DHT22;64852;48.092;-1.640;2024-02-28T13:26:12;13.20;99.90
76120;DHT22;64852;48.092;-1.640;2024-02-28T13:28:46;13.30;99.90
76120;DHT22;64852;48.092;-1.640;2024-02-28T13:31:11;13.40;99.90
76120;DHT22;64852;48.092;-1.640;2024-02-28T13:33:38;13.30;99.90
76120;DHT22;64852;48.092;-1.640;2024-02-28T13:36:03;13.30;99.90
76120;DHT22;64852;48.092;-1.640;2024-02-28T13:38:29;13.40;99.90
76120;DHT22;64852;48.092;-1.640;2024-02-28T13:40:55;13.50;99.90
76120;DHT22;64852;48.092;-1.640;2024-02-28T13:43:21;13.60;99.90
76120;DHT22;64852;48.092;-1.640;2024-02-28T13:45:47;13.50;99.90
76120;DHT22;64852;48.092;-1.640;2024-02-28T13:48:16;13.60;99.90
76120;DHT22;64852;48.092;-1.640;2024-02-28T13:50:43;13.60;99.90
76120;DHT22;64852;48.092;-1.640;2024-02-28T13:53:08;13.60;99.90
76120;DHT22;64852;48.092;-1.640;2024-02-28T13:55:34;13.50;99.90
76120;DHT22;64852;48.092;-1.640;2024-02-28T13:57:59;13.50;99.90
76120;DHT22;64852;48.092;-1.640;2024-02-28T14:00:25;13.50;99.90
76120;DHT22;64852;48.092;-1.640;2024-02-28T14:02:50;13.30;99.90
76120;DHT22;64852;48.092;-1.640;2024-02-28T14:05:16;13.40;99.90
76120;DHT22;64852;48.092;-1.640;2024-02-28T14:07:42;13.50;99.90
76120;DHT22;64852;48.092;-1.640;2024-02-28T14:10:07;13.30;99.90
76120;DHT22;64852;48.092;-1.640;2024-02-28T14:12:33;13.30;99.90
76120;DHT22;64852;48.092;-1.640;2024-02-28T14:14:58;13.30;99.90
76120;DHT22;64852;48.092;-1.640;2024-02-28T14:17:24;13.30;99.90
76120;DHT22;64852;48.092;-1.640;2024-02-28T14:19:49;13.30;99.90
76120;DHT22;64852;48.092;-1.640;2024-02-28T14:22:15;13.30;99.90
76120;DHT22;64852;48.092;-1.640;2024-02-28T14:24:40;13.40;99.90
76120;DHT22;64852;48.092;-1.640;2024-02-28T14:27:06;13.40;99.90
76120;DHT22;64852;48.092;-1.640;2024-02-28T14:29:31;13.40;99.90
76120;DHT22;64852;48.092;-1.640;2024-02-28T14:31:57;13.40;99.90
76120;DHT22;64852;48.092;-1.640;2024-02-28T14:34:22;13.40;99.90
76120;DHT22;64852;48.092;-1.640;2024-02-28T14:36:48;13.40;99.90
76120;DHT22;64852;48.092;-1.640;2024-02-28T14:39:14;13.50;99.90
76120;DHT22;64852;48.092;-1.640;2024-02-28T14:41:43;13.40;99.90
76120;DHT22;64852;48.092;-1.640;2024-02-28T14:44:12;13.50;99.90
76120;DHT22;64852;48.092;-1.640;2024-02-28T14:49:04;13.40;99.90
76120;DHT22;64852;48.092;-1.640;2024-02-28T14:51:30;13.50;99.90
76120;DHT22;64852;48.092;-1.640;2024-02-28T14:53:55;13.30;99.90
76120;DHT22;64852;48.092;-1.640;2024-02-28T14:56:21;13.40;99.90
76120;DHT22;64852;48.092;-1.640;2024-02-28T14:58:47;13.30;99.90
76120;DHT22;64852;48.092;-1.640;2024-02-28T15:01:12;13.30;99.90
76120;DHT22;64852;48.092;-1.640;2024-02-28T15:03:39;13.20;99.90
76120;DHT22;64852;48.092;-1.640;2024-02-28T15:06:05;13.40;99.90
76120;DHT22;64852;48.092;-1.640;2024-02-28T15:08:30;13.30;99.90
76120;DHT22;64852;48.092;-1.640;2024-02-28T15:10:56;13.40;99.90
76120;DHT22;64852;48.092;-1.640;2024-02-28T15:13:22;13.30;99.90
76120;DHT22;64852;48.092;-1.640;2024-02-28T15:15:49;13.20;99.90